Time;durP1;ratioP1;P1;durP2;ratioP2;P2;SDS_P1;SDS_P2;PMS_P1;PMS_P2;Temp;Humidity;BMP_temperature;BMP_pressure;BME280_temperature;BME280_humidity;BME280_pressure;Samples;Min_cycle;Max_cycle;Signal;HPM_P1;HPM_P2
2023/10/10 00:00:23;;;;;;;3.67;3.10;;;15.30;99.90;;;;;;5013358;28;20096;-79
2023/10/10 00:02:53;;;;;;;6.72;3.75;;;15.40;99.90;;;;;;5012972;28;20056;-80
2023/10/10 00:05:30;;;;;;;6.28;4.55;;;15.40;99.90;;;;;;5012989;28;20094;-87
2023/10/10 00:07:59;;;;;;;4.68;3.45;;;15.40;99.90;;;;;;5012878;28;20383;-80
2023/10/10 00:10:27;;;;;;;7.35;4.95;;;15.40;99.90;;;;;;5012554;28;20100;-80
2023/10/10 00:12:53;;;;;;;7.13;4.28;;;15.40;99.90;;;;;;5012245;28;20054;-80
2023/10/10 00:15:24;;;;;;;7.63;4.30;;;15.40;99.90;;;;;;5013523;28;20053;-80
2023/10/10 00:17:50;;;;;;;7.18;4.75;;;15.40;99.90;;;;;;5013463;28;20050;-80
2023/10/10 00:20:22;;;;;;;8.48;5.32;;;15.50;99.90;;;;;;5012240;28;20054;-80
2023/10/10 00:22:49;;;;;;;5.45;4.35;;;15.40;99.90;;;;;;5012903;28;20050;-80
2023/10/10 00:25:17;;;;;;;7.85;4.65;;;15.40;99.90;;;;;;5012841;28;20060;-79
2023/10/10 00:27:55;;;;;;;7.32;5.05;;;15.30;99.90;;;;;;5012728;28;20085;-80
2023/10/10 00:30:22;;;;;;;10.40;5.65;;;15.20;99.90;;;;;;5012488;28;20054;-80
2023/10/10 00:32:50;;;;;;;6.90;4.93;;;15.20;99.90;;;;;;5012543;28;20060;-80
2023/10/10 00:35:17;;;;;;;5.10;4.20;;;15.20;99.90;;;;;;5013129;28;20100;-80
2023/10/10 00:37:45;;;;;;;9.88;5.35;;;15.30;99.90;;;;;;5012896;28;20058;-80
2023/10/10 00:40:15;;;;;;;7.07;4.60;;;15.20;99.90;;;;;;5013060;28;20050;-79
2023/10/10 00:42:41;;;;;;;5.57;4.15;;;15.30;99.90;;;;;;5013023;28;20050;-80
2023/10/10 00:45:09;;;;;;;6.95;4.78;;;15.30;99.90;;;;;;5012598;28;20120;-80
2023/10/10 00:47:50;;;;;;;8.38;4.97;;;15.30;99.90;;;;;;5012947;28;20176;-80
2023/10/10 00:50:18;;;;;;;10.73;6.50;;;15.40;99.90;;;;;;5012854;28;20058;-80
2023/10/10 00:52:48;;;;;;;8.52;6.13;;;15.30;99.90;;;;;;5012184;28;20127;-80
2023/10/10 00:55:21;;;;;;;13.55;6.72;;;15.40;99.90;;;;;;5012565;28;20060;-80
2023/10/10 00:57:52;;;;;;;;;;;15.30;99.90;;;;;;5013097;28;20052;-80
2023/10/10 01:00:20;;;;;;;6.13;4.60;;;15.20;99.90;;;;;;5012968;28;19921;-80
2023/10/10 01:02:46;;;;;;;7.50;5.43;;;15.20;99.90;;;;;;5012897;28;20236;-80
2023/10/10 01:05:12;;;;;;;9.10;5.35;;;15.20;99.90;;;;;;5012439;28;20132;-80
2023/10/10 01:07:47;;;;;;;6.28;5.65;;;15.30;99.90;;;;;;5013039;28;20081;-80
2023/10/10 01:10:16;;;;;;;7.15;5.15;;;15.30;99.90;;;;;;5011347;28;20436;-79
2023/10/10 01:12:43;;;;;;;7.30;5.72;;;15.30;99.90;;;;;;5012957;28;20155;-80
2023/10/10 01:15:43;;;;;;;9.75;6.35;;;15.30;99.90;;;;;;5012728;28;20046;-80
2023/10/10 01:18:03;;;;;;;9.65;6.05;;;15.20;99.90;;;;;;5010079;28;20056;-80
2023/10/10 01:20:45;;;;;;;9.32;6.05;;;15.10;99.90;;;;;;5012377;28;20064;-80
2023/10/10 01:23:15;;;;;;;5.90;4.30;;;15.00;99.90;;;;;;5011252;28;20042;-80
2023/10/10 01:25:46;;;;;;;10.75;7.30;;;15.10;99.90;;;;;;5012816;28;20077;-80
2023/10/10 01:28:22;;;;;;;8.57;5.90;;;15.10;99.90;;;;;;5012415;28;20046;-80
2023/10/10 01:33:36;;;;;;;9.48;6.35;;;15.20;99.90;;;;;;5012390;28;20057;-80
2023/10/10 01:36:13;;;;;;;9.75;7.22;;;15.20;99.90;;;;;;5012407;28;20120;-80
2023/10/10 01:38:41;;;;;;;9.73;6.68;;;15.20;99.90;;;;;;5010970;28;20137;-80
2023/10/10 01:41:24;;;;;;;9.13;7.45;;;15.20;99.90;;;;;;5011991;28;20388;-79
2023/10/10 01:43:53;;;;;;;10.82;6.45;;;15.20;99.90;;;;;;5015386;28;20076;-80
2023/10/10 01:46:28;;;;;;;7.28;6.57;;;15.20;99.90;;;;;;5015587;28;20395;-80
2023/10/10 01:48:57;;;;;;;6.82;4.53;;;15.10;99.90;;;;;;5015648;28;20117;-80
2023/10/10 01:51:29;;;;;;;9.65;6.80;;;15.10;99.90;;;;;;5014706;28;20050;-80
2023/10/10 01:53:58;;;;;;;11.95;6.78;;;15.20;99.90;;;;;;5015737;28;20050;-79
2023/10/10 01:56:26;;;;;;;8.52;6.40;;;15.30;99.90;;;;;;5014717;28;20046;-79
2023/10/10 01:58:53;;;;;;;7.65;5.18;;;15.30;99.90;;;;;;5015133;28;20042;-80
2023/10/10 02:01:19;;;;;;;9.25;6.60;;;15.30;99.90;;;;;;5014529;28;20068;-80
2023/10/10 02:03:47;;;;;;;8.02;5.70;;;15.30;99.90;;;;;;5015228;28;20073;-80
2023/10/10 02:06:22;;;;;;;10.73;6.40;;;15.30;99.90;;;;;;5015346;28;20184;-80
2023/10/10 02:08:51;;;;;;;10.10;6.00;;;15.30;99.90;;;;;;5015300;28;20041;-80
2023/10/10 02:11:22;;;;;;;8.35;6.30;;;15.30;99.90;;;;;;5015144;28;20050;-80
2023/10/10 02:13:48;;;;;;;7.57;5.38;;;15.30;99.90;;;;;;5015608;28;20049;-80
2023/10/10 02:16:17;;;;;;;7.55;6.32;;;15.40;99.90;;;;;;5015103;28;20048;-79
2023/10/10 02:18:51;;;;;;;6.75;4.15;;;15.40;99.90;;;;;;5014996;28;20046;-80
2023/10/10 02:21:32;;;;;;;9.20;5.22;;;15.50;99.90;;;;;;5015077;28;20054;-80
2023/10/10 02:24:19;;;;;;;7.78;5.55;;;15.40;99.90;;;;;;5015269;28;20117;-80
2023/10/10 02:26:51;;;;;;;9.27;5.63;;;15.50;99.90;;;;;;5014968;28;20474;-80
2023/10/10 02:29:21;;;;;;;11.43;5.47;;;15.50;99.90;;;;;;5015315;28;20094;-80
2023/10/10 02:31:56;;;;;;;11.85;5.95;;;15.50;99.90;;;;;;5014761;28;20069;-80
2023/10/10 02:34:22;;;;;;;13.98;6.00;;;15.40;99.90;;;;;;5014845;28;20042;-80
2023/10/10 02:37:12;;;;;;;7.22;5.07;;;15.40;99.90;;;;;;5014924;28;20104;-80
2023/10/10 02:39:41;;;;;;;7.88;5.65;;;15.50;99.90;;;;;;5014803;28;20541;-80
2023/10/10 02:42:13;;;;;;;5.20;4.07;;;15.50;99.90;;;;;;5014319;28;20081;-80
2023/10/10 02:44:46;;;;;;;7.60;4.70;;;15.50;99.90;;;;;;5014625;28;20054;-79
2023/10/10 02:47:13;;;;;;;6.28;5.07;;;15.50;99.90;;;;;;5014952;28;20064;-79
2023/10/10 02:49:42;;;;;;;9.77;6.15;;;15.50;99.90;;;;;;5013865;28;20451;-80
2023/10/10 02:52:08;;;;;;;9.52;5.82;;;15.50;99.90;;;;;;4981697;28;20045;-80
2023/10/10 02:54:35;;;;;;;9.30;5.82;;;15.60;99.90;;;;;;5014252;28;20046;-79
2023/10/10 02:59:51;;;;;;;7.10;5.13;;;15.50;99.90;;;;;;5014234;28;20137;-79
2023/10/10 03:02:28;;;;;;;7.50;5.47;;;15.60;99.90;;;;;;5014428;28;20077;-79
2023/10/10 03:07:29;;;;;;;9.82;6.18;;;15.60;99.90;;;;;;5014318;28;20058;-80
2023/10/10 03:12:48;;;;;;;6.82;6.13;;;15.60;99.90;;;;;;5014173;28;20061;-80
2023/10/10 03:18:28;;;;;;;12.95;5.90;;;15.50;99.90;;;;;;5014075;28;20503;-80
2023/10/10 03:31:05;;;;;;;7.53;5.93;;;15.60;99.90;;;;;;5013923;28;20144;-80
2023/10/10 03:37:04;;;;;;;7.30;4.68;;;15.50;99.90;;;;;;5014251;28;20061;-80
2023/10/10 05:25:13;;;;;;;19.42;15.38;;;15.40;99.90;;;;;;5016148;28;20085;-80
2023/10/10 05:27:42;;;;;;;21.48;14.20;;;15.40;99.90;;;;;;5015621;28;20061;-80
2023/10/10 05:30:23;;;;;;;20.80;13.98;;;15.30;99.90;;;;;;5016367;28;20363;-80
2023/10/10 05:33:01;;;;;;;17.67;13.43;;;15.40;99.90;;;;;;5015925;28;20092;-80
2023/10/10 05:35:32;;;;;;;17.30;14.10;;;15.40;99.90;;;;;;5016242;28;20136;-80
2023/10/10 05:38:02;;;;;;;19.70;13.85;;;15.20;99.90;;;;;;5015928;28;20054;-80
2023/10/10 05:40:28;;;;;;;16.02;13.55;;;15.30;99.90;;;;;;5015790;28;20046;-80
2023/10/10 05:42:57;;;;;;;20.80;14.23;;;15.20;99.90;;;;;;5015619;28;20086;-80
2023/10/10 05:45:23;;;;;;;16.80;13.02;;;15.30;99.90;;;;;;5014516;28;20042;-79
2023/10/10 05:47:49;;;;;;;15.30;12.82;;;15.30;99.90;;;;;;5015566;28;20466;-79
2023/10/10 05:50:16;;;;;;;19.58;14.05;;;15.30;99.90;;;;;;5015772;28;20050;-79
2023/10/10 05:52:43;;;;;;;17.10;14.30;;;15.30;99.90;;;;;;5016026;28;20147;-79
2023/10/10 05:55:10;;;;;;;17.85;14.45;;;15.30;99.90;;;;;;5014273;28;20049;-79
2023/10/10 05:57:39;;;;;;;19.88;13.55;;;15.30;99.90;;;;;;5015265;28;20121;-79
2023/10/10 06:00:16;;;;;;;15.65;12.55;;;15.20;99.90;;;;;;5015087;28;20053;-80
2023/10/10 06:02:45;;;;;;;19.55;14.30;;;15.30;99.90;;;;;;5015159;28;20058;-79
2023/10/10 06:05:12;;;;;;;17.75;14.60;;;15.10;99.90;;;;;;5015125;28;20490;-79
2023/10/10 06:07:44;;;;;;;17.48;13.95;;;15.10;99.90;;;;;;5014956;28;20050;-79
2023/10/10 06:10:15;;;;;;;15.35;12.15;;;15.10;99.90;;;;;;5015355;28;20140;-79
2023/10/10 06:12:42;;;;;;;18.48;13.38;;;15.20;99.90;;;;;;5015179;28;20466;-79
2023/10/10 06:15:08;;;;;;;20.88;16.65;;;15.10;99.90;;;;;;5014912;28;20081;-79
2023/10/10 06:17:34;;;;;;;20.50;15.35;;;15.10;99.90;;;;;;5014962;28;20108;-79
2023/10/10 06:20:00;;;;;;;19.00;13.80;;;15.20;99.90;;;;;;5014879;28;20050;-79
2023/10/10 06:22:29;;;;;;;20.23;15.30;;;15.20;99.90;;;;;;5013958;28;20046;-79
2023/10/10 06:24:58;;;;;;;21.00;15.93;;;15.20;99.90;;;;;;5014725;28;20042;-79
2023/10/10 06:27:28;;;;;;;22.27;15.25;;;15.10;99.90;;;;;;5013629;28;20104;-79
2023/10/10 06:29:58;;;;;;;23.73;16.63;;;15.10;99.90;;;;;;5014231;28;20058;-79
2023/10/10 06:32:30;;;;;;;21.95;17.38;;;15.20;99.90;;;;;;5014625;28;20046;-79
2023/10/10 06:35:26;;;;;;;24.73;18.10;;;15.20;99.90;;;;;;5014833;28;20121;-79
2023/10/10 06:37:52;;;;;;;24.60;18.83;;;15.20;99.90;;;;;;5014822;28;20057;-79
2023/10/10 06:40:30;;;;;;;25.02;18.00;;;15.30;99.90;;;;;;5014470;28;20111;-79
2023/10/10 06:42:56;;;;;;;22.88;19.00;;;15.30;99.90;;;;;;5014408;28;20116;-79
2023/10/10 06:45:34;;;;;;;23.23;18.25;;;15.40;99.90;;;;;;5013804;28;20103;-79
2023/10/10 06:48:01;;;;;;;22.45;16.55;;;15.30;99.90;;;;;;5014518;28;20137;-79
2023/10/10 06:50:31;;;;;;;25.13;16.55;;;15.40;99.90;;;;;;5014284;28;20057;-79
2023/10/10 06:53:00;;;;;;;25.02;18.58;;;15.50;99.90;;;;;;5014765;28;20049;-79
2023/10/10 06:55:36;;;;;;;27.02;19.55;;;15.40;99.90;;;;;;5014311;28;20057;-79
2023/10/10 06:58:05;;;;;;;26.73;19.15;;;15.50;99.90;;;;;;5014271;28;20041;-80
2023/10/10 07:00:44;;;;;;;22.45;17.55;;;15.50;99.90;;;;;;5014361;28;20072;-79
2023/10/10 07:03:17;;;;;;;25.00;17.60;;;15.60;99.90;;;;;;5014001;28;20049;-79
2023/10/10 07:05:43;;;;;;;26.33;18.67;;;15.60;99.90;;;;;;5013999;28;20462;-79
2023/10/10 07:08:24;;;;;;;23.05;17.67;;;15.80;99.90;;;;;;5012871;28;20129;-79
2023/10/10 07:10:53;;;;;;;23.23;15.38;;;15.80;99.90;;;;;;5014186;28;20058;-80
2023/10/10 07:13:20;;;;;;;21.55;15.02;;;15.80;99.90;;;;;;5013966;28;20042;-79
2023/10/10 07:15:52;;;;;;;21.23;15.77;;;15.80;99.90;;;;;;5014117;28;20084;-79
2023/10/10 07:18:25;;;;;;;24.50;17.20;;;15.80;99.90;;;;;;5014046;28;20050;-79
2023/10/10 07:21:08;;;;;;;20.98;16.05;;;16.00;99.90;;;;;;5013918;28;20046;-80
2023/10/10 07:23:37;;;;;;;;;;;16.00;99.90;;;;;;5014374;28;20133;-79
2023/10/10 07:26:18;;;;;;;21.73;15.80;;;16.60;99.90;;;;;;5013859;28;19975;-79
2023/10/10 07:28:52;;;;;;;22.63;16.52;;;16.20;99.90;;;;;;5013928;28;20494;-80
2023/10/10 07:31:20;;;;;;;20.83;16.23;;;16.30;99.90;;;;;;5013795;28;20042;-79
2023/10/10 07:34:03;;;;;;;19.50;15.55;;;16.40;99.90;;;;;;5014137;28;20077;-80
2023/10/10 07:36:29;;;;;;;25.33;15.60;;;16.40;99.90;;;;;;5014334;28;20134;-79
2023/10/10 07:39:57;;;;;;;25.90;17.58;;;16.40;99.90;;;;;;5014067;28;20046;-80
2023/10/10 07:41:52;;;;;;;21.73;17.17;;;16.30;99.90;;;;;;5008016;28;20049;-79
2023/10/10 07:44:22;;;;;;;25.52;17.80;;;16.40;99.90;;;;;;5013385;28;20042;-79
2023/10/10 07:47:25;;;;;;;28.60;19.92;;;16.40;99.90;;;;;;5013566;28;20133;-79
2023/10/10 07:49:40;;;;;;;27.70;19.57;;;16.60;99.90;;;;;;5011604;28;20066;-79
2023/10/10 07:52:06;;;;;;;23.70;18.40;;;16.70;99.90;;;;;;5013605;28;20069;-79
2023/10/10 07:54:44;;;;;;;26.10;20.45;;;16.80;99.90;;;;;;5013300;28;20132;-79
2023/10/10 07:57:22;;;;;;;31.80;22.75;;;16.80;99.90;;;;;;5013629;28;20132;-79
2023/10/10 07:59:56;;;;;;;32.85;22.33;;;17.00;99.90;;;;;;5013083;28;20054;-79
2023/10/10 08:04:57;;;;;;;33.38;22.95;;;17.10;99.90;;;;;;5013159;28;20046;-79
2023/10/10 08:07:24;;;;;;;29.60;22.20;;;17.20;99.90;;;;;;5012766;28;20082;-79
2023/10/10 08:10:12;;;;;;;28.15;21.45;;;17.40;99.90;;;;;;5013745;28;20045;-80
2023/10/10 08:12:43;;;;;;;30.80;22.85;;;17.50;99.90;;;;;;5013185;28;20054;-79
2023/10/10 08:15:19;;;;;;;38.13;24.30;;;17.60;99.90;;;;;;5013459;28;20496;-79
2023/10/10 08:17:52;;;;;;;30.35;21.58;;;17.60;99.90;;;;;;5013356;28;20080;-80
2023/10/10 08:20:36;;;;;;;32.22;21.33;;;17.90;99.90;;;;;;5013011;28;20049;-80
2023/10/10 08:23:03;;;;;;;30.17;21.67;;;18.10;99.90;;;;;;5012967;28;20049;-80
2023/10/10 08:25:29;;;;;;;32.70;23.33;;;18.20;99.90;;;;;;5011935;28;20120;-80
2023/10/10 08:27:56;;;;;;;35.00;21.95;;;18.10;99.90;;;;;;5012929;28;20046;-79
2023/10/10 08:30:25;;;;;;;35.53;24.50;;;18.10;99.90;;;;;;5012817;28;20061;-80
2023/10/10 08:33:01;;;;;;;29.45;23.42;;;18.00;99.90;;;;;;5012681;28;20046;-80
2023/10/10 08:35:29;;;;;;;37.30;25.45;;;18.00;99.90;;;;;;5012076;28;20429;-80
2023/10/10 08:37:56;;;;;;;37.00;28.42;;;17.90;99.90;;;;;;5012771;28;20482;-79
2023/10/10 08:40:23;;;;;;;35.65;26.27;;;18.00;99.90;;;;;;5012902;28;20054;-79
2023/10/10 08:42:50;;;;;;;36.53;28.27;;;18.10;99.90;;;;;;5012771;28;20132;-80
2023/10/10 08:45:22;;;;;;;34.65;28.13;;;18.20;99.90;;;;;;5012780;28;20121;-80
2023/10/10 08:48:00;;;;;;;40.75;27.90;;;18.20;99.90;;;;;;5012760;28;20133;-79
2023/10/10 08:50:27;;;;;;;37.83;27.17;;;18.30;99.90;;;;;;5011914;28;20053;-80
2023/10/10 08:52:53;;;;;;;42.95;28.85;;;18.40;99.90;;;;;;5015058;28;20077;-79
2023/10/10 08:55:28;;;;;;;39.38;28.48;;;18.40;99.90;;;;;;5016635;28;20516;-79
2023/10/10 08:57:57;;;;;;;41.20;28.85;;;18.70;99.90;;;;;;5015941;28;20081;-79
2023/10/10 09:00:26;;;;;;;40.83;27.70;;;18.80;99.90;;;;;;5016113;28;20399;-80
2023/10/10 09:02:56;;;;;;;39.05;26.65;;;19.00;99.90;;;;;;5016519;28;20056;-80
2023/10/10 09:05:24;;;;;;;45.28;29.05;;;19.00;99.90;;;;;;5016927;28;20487;-80
2023/10/10 09:07:54;;;;;;;42.00;28.17;;;18.80;99.90;;;;;;5016436;28;20553;-80
2023/10/10 09:10:28;;;;;;;38.42;28.33;;;18.90;99.90;;;;;;5016782;28;20045;-79
2023/10/10 09:12:58;;;;;;;36.10;27.70;;;18.80;99.90;;;;;;5016002;28;20499;-80
2023/10/10 09:15:27;;;;;;;40.33;29.50;;;18.90;99.90;;;;;;5015716;28;20081;-80
2023/10/10 09:18:10;;;;;;;40.67;27.63;;;18.90;99.90;;;;;;5016333;28;20050;-80
2023/10/10 09:20:37;;;;;;;40.17;28.40;;;18.60;99.90;;;;;;5017064;28;20049;-80
2023/10/10 09:23:18;;;;;;;42.67;29.80;;;19.00;99.90;;;;;;5016251;28;20054;-80
2023/10/10 09:25:48;;;;;;;42.17;29.15;;;19.10;99.90;;;;;;5017390;28;20057;-80
2023/10/10 09:28:16;;;;;;;41.92;27.67;;;19.20;99.90;;;;;;5015181;28;20459;-79
2023/10/10 09:30:50;;;;;;;41.75;28.23;;;19.50;99.90;;;;;;5016607;28;20046;-80
2023/10/10 09:35:49;;;;;;;38.58;27.48;;;20.40;99.90;;;;;;5016014;28;20471;-80
2023/10/10 09:38:20;;;;;;;38.20;26.67;;;21.00;99.90;;;;;;5016926;28;20050;-80
2023/10/10 09:40:59;;;;;;;37.78;27.55;;;21.10;99.90;;;;;;5021728;28;20052;-80
2023/10/10 09:43:35;;;;;;;37.67;27.88;;;21.20;99.90;;;;;;5021333;28;20046;-79
2023/10/10 09:46:19;;;;;;;39.22;27.80;;;21.10;99.90;;;;;;5016365;28;20050;-80
2023/10/10 09:49:29;;;;;;;38.50;26.73;;;21.10;99.90;;;;;;5015890;28;20045;-79
2023/10/10 09:54:25;;;;;;;38.65;26.25;;;21.20;99.90;;;;;;5016081;28;20053;-81
2023/10/10 09:56:53;;;;;;;35.73;26.93;;;21.20;99.90;;;;;;5015175;28;20038;-80
2023/10/10 09:59:20;;;;;;;35.95;26.05;;;21.60;99.90;;;;;;5015509;28;20517;-80
2023/10/10 10:01:59;;;;;;;36.47;24.80;;;21.80;99.90;;;;;;5015294;28;20050;-80
2023/10/10 10:04:28;;;;;;;34.88;23.45;;;22.20;99.90;;;;;;5014820;28;20042;-80
2023/10/10 10:06:57;;;;;;;35.03;24.35;;;22.40;99.90;;;;;;5015725;28;20050;-80
2023/10/10 10:09:32;;;;;;;33.97;24.33;;;22.50;99.90;;;;;;5014059;28;20069;-80
2023/10/10 10:12:19;;;;;;;34.78;24.30;;;22.70;99.90;;;;;;5015353;28;20138;-80
2023/10/10 10:15:18;;;;;;;30.38;22.75;;;22.80;99.90;;;;;;5015313;28;20081;-80
2023/10/10 10:17:56;;;;;;;30.83;22.25;;;22.90;99.90;;;;;;5014062;28;20041;-79
2023/10/10 10:20:46;;;;;;;34.53;21.48;;;23.20;99.90;;;;;;5015214;28;20060;-80
2023/10/10 10:23:27;;;;;;;30.02;22.92;;;23.30;99.90;;;;;;5014911;28;20057;-79
2023/10/10 10:26:08;;;;;;;32.22;22.95;;;23.10;99.90;;;;;;5014863;28;20152;-80
2023/10/10 10:28:37;;;;;;;29.65;20.33;;;22.80;99.90;;;;;;5015009;28;20050;-79
2023/10/10 10:31:28;;;;;;;33.10;23.10;;;22.70;99.90;;;;;;5014651;28;20415;-80
2023/10/10 10:34:10;;;;;;;33.70;22.20;;;22.40;99.90;;;;;;5014901;28;20157;-79
2023/10/10 10:36:50;;;;;;;32.72;20.58;;;22.00;99.90;;;;;;5014648;28;20042;-79
2023/10/10 10:39:25;;;;;;;29.88;21.05;;;21.70;99.90;;;;;;5014199;28;20412;-79
2023/10/10 10:41:56;;;;;;;28.08;20.80;;;21.60;99.90;;;;;;5015016;28;20100;-80
2023/10/10 10:44:54;;;;;;;29.38;20.55;;;21.60;99.90;;;;;;5014308;28;20479;-79
2023/10/10 10:47:37;;;;;;;27.20;20.05;;;21.60;99.90;;;;;;5013315;28;20096;-79
2023/10/10 10:50:17;;;;;;;30.48;19.20;;;21.60;99.90;;;;;;5015182;28;20054;-79
2023/10/10 10:52:58;;;;;;;27.65;19.80;;;21.60;99.90;;;;;;5014693;28;20128;-80
2023/10/10 10:55:28;;;;;;;26.27;18.92;;;21.50;99.90;;;;;;5014561;28;20120;-80
2023/10/10 10:58:20;;;;;;;24.67;19.05;;;21.50;99.90;;;;;;5015315;28;20072;-79
2023/10/10 11:03:37;;;;;;;26.50;19.25;;;21.50;99.90;;;;;;5014690;28;20137;-79
2023/10/10 11:06:08;;;;;;;22.88;18.20;;;21.50;99.90;;;;;;5014281;28;20038;-79
2023/10/10 11:08:52;;;;;;;27.00;19.27;;;21.50;99.90;;;;;;5014651;28;20103;-80
2023/10/10 11:11:24;;;;;;;30.50;20.45;;;21.40;99.90;;;;;;5014697;28;20093;-79
2023/10/10 11:14:01;;;;;;;26.92;20.17;;;21.30;99.90;;;;;;5014541;28;20050;-79
2023/10/10 11:16:37;;;;;;;27.63;18.85;;;21.20;99.90;;;;;;5013293;28;20095;-79
2023/10/10 11:22:38;;;;;;;30.20;18.73;;;21.00;99.90;;;;;;4993608;28;20049;-81
2023/10/10 11:25:04;;;;;;;24.95;19.02;;;21.00;99.90;;;;;;5011924;28;20058;-79
2023/10/10 11:27:33;;;;;;;27.05;18.73;;;21.00;99.90;;;;;;5014277;28;20496;-79
2023/10/10 11:30:08;;;;;;;25.02;18.77;;;21.20;99.90;;;;;;5014075;28;20129;-79
2023/10/10 11:32:47;;;;;;;26.65;19.90;;;21.20;99.90;;;;;;5013065;28;20413;-79
2023/10/10 11:35:22;;;;;;;24.30;18.33;;;21.20;99.90;;;;;;5012924;28;20482;-79
2023/10/10 11:37:59;;;;;;;29.02;19.83;;;21.30;99.90;;;;;;5013761;28;20038;-78
2023/10/10 11:40:33;;;;;;;26.35;19.02;;;21.30;99.90;;;;;;5013480;28;20111;-79
2023/10/10 11:43:17;;;;;;;28.90;20.45;;;21.50;99.90;;;;;;5013787;28;20052;-80
2023/10/10 11:45:51;;;;;;;30.65;20.50;;;21.50;99.90;;;;;;5013611;28;20057;-80
2023/10/10 11:48:17;;;;;;;25.33;20.10;;;21.60;99.90;;;;;;5013772;28;20515;-80
2023/10/10 11:50:51;;;;;;;24.45;17.50;;;21.60;99.90;;;;;;5012207;28;20065;-81
2023/10/10 11:53:27;;;;;;;25.25;18.52;;;21.50;99.90;;;;;;5013669;28;20057;-79
2023/10/10 11:55:53;;;;;;;26.75;18.30;;;21.50;99.90;;;;;;5013445;28;20042;-80
2023/10/10 11:58:19;;;;;;;22.35;15.88;;;21.50;99.90;;;;;;5013304;28;20053;-79
2023/10/10 12:01:04;;;;;;;25.67;17.20;;;21.60;99.90;;;;;;5014114;28;20108;-80
2023/10/10 12:03:48;;;;;;;24.35;17.15;;;21.60;99.90;;;;;;5013169;28;20042;-79
2023/10/10 12:06:14;;;;;;;22.95;15.93;;;21.70;99.90;;;;;;5013239;28;20459;-80
2023/10/10 12:08:49;;;;;;;21.27;16.20;;;21.70;99.90;;;;;;5013575;28;20141;-80
2023/10/10 12:11:23;;;;;;;27.08;17.63;;;21.60;99.90;;;;;;5013444;28;20412;-80
2023/10/10 12:13:59;;;;;;;22.65;15.98;;;21.60;99.90;;;;;;5012977;28;20045;-80
2023/10/10 12:16:25;;;;;;;26.88;17.60;;;21.70;99.90;;;;;;5012548;28;20083;-80
2023/10/10 12:18:52;;;;;;;21.63;16.48;;;21.70;99.90;;;;;;5013588;28;20042;-80
2023/10/10 12:21:31;;;;;;;21.40;15.48;;;21.80;99.90;;;;;;5013504;28;20088;-80
2023/10/10 12:23:57;;;;;;;24.75;17.25;;;22.00;99.90;;;;;;5013381;28;20127;-80
2023/10/10 12:26:23;;;;;;;22.83;16.00;;;22.20;99.90;;;;;;5012488;28;20482;-80
2023/10/10 12:28:52;;;;;;;24.65;15.68;;;22.30;99.90;;;;;;5012598;28;20571;-80
2023/10/10 12:31:21;;;;;;;27.23;16.48;;;22.40;99.90;;;;;;5011986;28;20050;-79
2023/10/10 12:33:53;;;;;;;22.77;18.38;;;22.40;99.90;;;;;;5012663;28;20050;-80
2023/10/10 12:36:22;;;;;;;21.77;17.08;;;22.30;99.90;;;;;;5012135;28;20129;-79
2023/10/10 12:38:48;;;;;;;21.95;16.80;;;22.40;99.90;;;;;;5012904;28;20061;-78
2023/10/10 12:41:20;;;;;;;28.92;16.85;;;22.40;99.90;;;;;;5012829;28;20065;-79
2023/10/10 12:43:46;;;;;;;22.83;16.73;;;22.40;99.90;;;;;;5012753;28;20054;-80
2023/10/10 12:46:16;;;;;;;23.50;15.40;;;22.50;99.90;;;;;;5012687;28;20042;-79
2023/10/10 12:48:42;;;;;;;21.42;15.60;;;22.50;99.90;;;;;;5012620;28;20050;-78
2023/10/10 12:51:12;;;;;;;19.90;15.68;;;22.50;99.90;;;;;;5012693;28;20132;-79
2023/10/10 12:53:39;;;;;;;24.30;16.25;;;22.50;99.90;;;;;;5012649;28;20511;-79
2023/10/10 12:56:12;;;;;;;21.50;15.40;;;22.40;99.90;;;;;;5012667;28;20049;-79
2023/10/10 12:58:43;;;;;;;22.70;14.30;;;22.30;99.90;;;;;;5013136;28;20050;-80
2023/10/10 13:01:14;;;;;;;22.38;14.77;;;22.10;99.90;;;;;;5012940;28;20065;-78
2023/10/10 13:03:42;;;;;;;22.88;15.50;;;22.00;99.90;;;;;;5012838;28;20053;-79
2023/10/10 13:06:09;;;;;;;17.98;14.20;;;22.00;99.90;;;;;;5012495;28;20054;-79
2023/10/10 13:11:20;;;;;;;20.20;14.38;;;22.10;99.90;;;;;;5012679;28;20057;-79
2023/10/10 13:13:51;;;;;;;21.70;13.68;;;22.20;99.90;;;;;;5011424;28;20049;-79
2023/10/10 13:16:27;;;;;;;18.60;13.48;;;22.20;99.90;;;;;;5012438;28;20518;-80
2023/10/10 13:18:57;;;;;;;19.20;14.48;;;22.10;99.90;;;;;;5011598;28;20061;-81
2023/10/10 13:21:26;;;;;;;19.20;15.43;;;22.10;99.90;;;;;;5012435;28;20049;-78
2023/10/10 13:23:53;;;;;;;21.55;14.52;;;22.10;99.90;;;;;;5012319;28;20129;-80
2023/10/10 13:26:22;;;;;;;20.75;14.70;;;22.10;99.90;;;;;;5011494;28;20058;-79
2023/10/10 13:28:49;;;;;;;21.77;15.02;;;22.10;99.90;;;;;;5012838;28;20077;-79
2023/10/10 13:31:16;;;;;;;22.98;13.38;;;22.10;99.90;;;;;;5012410;28;20056;-78
2023/10/10 13:33:43;;;;;;;20.83;14.43;;;22.10;99.90;;;;;;5012151;28;20049;-80
2023/10/10 13:36:15;;;;;;;18.92;14.38;;;22.10;99.90;;;;;;5012272;28;20124;-79
2023/10/10 13:38:47;;;;;;;21.37;14.90;;;21.90;99.90;;;;;;5013444;28;20073;-78
2023/10/10 13:41:19;;;;;;;21.23;14.77;;;21.90;99.90;;;;;;5016066;28;20053;-78
2023/10/10 13:43:48;;;;;;;20.40;13.00;;;21.70;99.90;;;;;;5016507;28;20044;-78
2023/10/10 13:46:19;;;;;;;21.42;14.00;;;21.70;99.90;;;;;;5015491;28;20753;-78
2023/10/10 13:48:46;;;;;;;20.17;13.02;;;21.70;99.90;;;;;;5015665;28;20052;-78
2023/10/10 13:51:15;;;;;;;21.38;13.68;;;21.70;99.90;;;;;;5016298;28;20042;-78
2023/10/10 13:53:43;;;;;;;18.15;13.43;;;21.60;99.90;;;;;;5014728;28;20049;-80
2023/10/10 13:56:16;;;;;;;16.70;12.85;;;21.60;99.90;;;;;;5015547;28;20397;-79
2023/10/10 13:58:48;;;;;;;21.08;12.40;;;21.70;99.90;;;;;;5015393;28;20050;-78
2023/10/10 14:01:18;;;;;;;18.67;13.03;;;21.70;99.90;;;;;;5015484;28;20516;-80
2023/10/10 14:03:48;;;;;;;18.27;13.02;;;21.70;99.90;;;;;;5015593;28;20490;-78
2023/10/10 14:06:22;;;;;;;16.38;12.20;;;21.80;99.90;;;;;;5014332;28;20050;-79
2023/10/10 14:08:49;;;;;;;21.00;14.30;;;21.90;99.90;;;;;;5015366;28;20477;-79
2023/10/10 14:11:21;;;;;;;19.92;14.80;;;22.10;99.90;;;;;;5015183;28;20038;-78
2023/10/10 14:13:51;;;;;;;23.08;15.45;;;21.90;99.90;;;;;;5015438;28;20041;-79
2023/10/10 14:16:18;;;;;;;21.80;14.73;;;21.90;99.90;;;;;;5015834;28;20085;-78
2023/10/10 14:18:47;;;;;;;22.20;15.02;;;21.80;99.90;;;;;;5013973;28;20132;-78
2023/10/10 14:21:14;;;;;;;21.63;14.80;;;21.70;99.90;;;;;;5015026;28;20050;-78
2023/10/10 14:23:41;;;;;;;22.75;15.88;;;21.60;99.90;;;;;;5014672;28;20373;-78
2023/10/10 14:26:13;;;;;;;22.58;15.90;;;21.50;99.90;;;;;;5015320;28;20041;-80
2023/10/10 14:28:41;;;;;;;23.65;16.08;;;21.50;99.90;;;;;;5015599;28;20077;-79
2023/10/10 14:31:12;;;;;;;20.17;16.33;;;21.50;99.90;;;;;;5015070;28;20054;-78
2023/10/10 14:33:40;;;;;;;20.13;14.88;;;21.40;99.90;;;;;;5014834;28;20073;-79
2023/10/10 14:36:12;;;;;;;20.10;15.65;;;21.40;99.90;;;;;;5014191;28;20046;-79
2023/10/10 14:38:44;;;;;;;21.13;15.10;;;21.40;99.90;;;;;;5015264;28;20097;-79
2023/10/10 14:41:18;;;;;;;21.27;15.53;;;21.30;99.90;;;;;;5014737;28;20128;-78
2023/10/10 14:43:48;;;;;;;27.90;17.63;;;21.20;99.90;;;;;;5014837;28;20053;-76
2023/10/10 14:46:21;;;;;;;21.38;15.85;;;21.20;99.90;;;;;;5014661;28;20049;-80
2023/10/10 14:49:05;;;;;;;;;;;21.10;99.90;;;;;;5015274;28;20085;-80
2023/10/10 14:51:36;;;;;;;22.05;16.08;;;21.10;99.90;;;;;;5015054;28;20001;-79
2023/10/10 14:54:12;;;;;;;27.02;16.05;;;21.00;99.90;;;;;;5013828;28;20073;-78
2023/10/10 14:56:45;;;;;;;25.15;16.52;;;20.90;99.90;;;;;;5014454;28;20539;-79
2023/10/10 14:59:25;;;;;;;66.78;52.78;;;20.90;99.90;;;;;;5014764;28;20125;-79
2023/10/10 15:01:52;;;;;;;24.30;15.82;;;20.90;99.90;;;;;;5014468;28;20049;-80
2023/10/10 15:04:20;;;;;;;22.05;15.52;;;20.80;99.90;;;;;;5014249;28;20427;-78
2023/10/10 15:06:47;;;;;;;21.88;15.65;;;20.80;99.90;;;;;;5014068;28;20050;-78
2023/10/10 15:09:14;;;;;;;20.92;14.93;;;20.80;99.90;;;;;;5014517;28;20455;-78
2023/10/10 15:11:41;;;;;;;19.42;15.57;;;20.80;99.90;;;;;;5014151;28;20132;-78
2023/10/10 15:14:09;;;;;;;21.48;14.45;;;20.80;99.90;;;;;;5014077;28;20565;-78
2023/10/10 15:16:36;;;;;;;19.98;15.32;;;20.80;99.90;;;;;;5014484;28;20050;-79
2023/10/10 15:19:07;;;;;;;22.17;14.30;;;20.70;99.90;;;;;;5013007;28;20057;-78
2023/10/10 15:21:37;;;;;;;18.67;14.50;;;20.70;99.90;;;;;;5014015;28;20046;-78
2023/10/10 15:24:03;;;;;;;16.70;14.52;;;20.60;99.90;;;;;;5013224;28;20382;-78
2023/10/10 15:26:30;;;;;;;20.40;15.23;;;20.50;99.90;;;;;;5014293;28;20132;-78